createdAt,value
2019-03-27T00:00:42.955Z,8.10
2019-03-27T00:03:16.000Z,8.10
2019-03-27T00:05:46.258Z,8.10
2019-03-27T00:08:15.935Z,8.00
2019-03-27T00:10:45.607Z,8.00
2019-03-27T00:13:15.287Z,8.00
2019-03-27T00:15:44.845Z,8.00
2019-03-27T00:18:17.731Z,7.90
2019-03-27T00:20:47.555Z,7.90
2019-03-27T00:23:17.247Z,7.90
2019-03-27T00:25:47.111Z,7.90
2019-03-27T00:28:16.747Z,8.00
2019-03-27T00:30:46.347Z,8.00
2019-03-27T00:33:17.274Z,7.90
2019-03-27T00:35:46.906Z,7.90
2019-03-27T00:38:16.514Z,7.80
2019-03-27T00:40:46.109Z,7.80
2019-03-27T00:43:15.618Z,7.80
2019-03-27T00:45:45.122Z,7.90
2019-03-27T00:48:14.763Z,7.90
2019-03-27T00:50:44.207Z,7.90
2019-03-27T00:53:13.658Z,7.80
2019-03-27T00:55:43.156Z,7.90
2019-03-27T00:58:13.082Z,7.90
2019-03-27T01:01:08.275Z,7.90
2019-03-27T01:03:37.879Z,7.90
2019-03-27T01:06:07.579Z,7.90
2019-03-27T01:08:37.232Z,7.90
2019-03-27T01:11:07.205Z,7.90
2019-03-27T01:13:36.895Z,7.90
2019-03-27T01:16:06.527Z,8.00
2019-03-27T01:18:36.203Z,7.90
2019-03-27T01:21:05.967Z,7.90
2019-03-27T01:23:35.633Z,7.90
2019-03-27T01:26:05.642Z,7.80
2019-03-27T01:28:35.261Z,7.80
2019-03-27T01:31:04.989Z,7.90
2019-03-27T01:33:34.623Z,7.90
2019-03-27T01:36:04.373Z,7.90
2019-03-27T01:38:33.883Z,7.90
2019-03-27T01:41:03.574Z,7.80
2019-03-27T01:43:33.156Z,7.80
2019-03-27T01:46:03.063Z,7.80
2019-03-27T01:48:32.927Z,7.80
2019-03-27T01:51:02.506Z,7.80
2019-03-27T01:53:32.143Z,7.80
2019-03-27T01:56:01.678Z,7.80
2019-03-27T01:58:31.409Z,7.80
2019-03-27T02:01:01.010Z,7.90
2019-03-27T02:03:30.774Z,7.90
2019-03-27T02:06:00.325Z,7.90
2019-03-27T02:08:30.250Z,7.90
2019-03-27T02:10:59.785Z,7.90
2019-03-27T02:13:29.290Z,7.80
2019-03-27T02:16:06.671Z,7.70
2019-03-27T02:18:30.530Z,7.70
2019-03-27T02:21:00.495Z,7.70
2019-03-27T02:23:30.378Z,7.70
2019-03-27T02:25:59.946Z,7.70
2019-03-27T02:28:29.434Z,7.70
2019-03-27T02:30:59.066Z,7.80
2019-03-27T02:33:28.931Z,7.80
2019-03-27T02:35:58.480Z,7.80
2019-03-27T02:38:28.074Z,7.80
2019-03-27T02:40:57.607Z,7.80
2019-03-27T02:43:27.161Z,7.80
2019-03-27T02:45:57.306Z,7.70
2019-03-27T02:48:27.118Z,7.70
2019-03-27T02:50:56.916Z,7.70
2019-03-27T02:53:26.527Z,7.70
2019-03-27T02:55:56.492Z,7.70
2019-03-27T02:58:26.340Z,7.70
2019-03-27T03:00:55.965Z,7.70
2019-03-27T03:03:25.508Z,7.70
2019-03-27T03:05:55.274Z,7.70
2019-03-27T03:08:24.767Z,7.70
2019-03-27T03:10:54.407Z,7.80
2019-03-27T03:13:24.149Z,7.70
2019-03-27T03:15:53.896Z,7.80
2019-03-27T03:18:23.568Z,7.80
2019-03-27T03:20:53.253Z,7.80
2019-03-27T03:23:23.044Z,7.80
2019-03-27T03:25:52.683Z,7.80
2019-03-27T03:28:22.135Z,7.70
2019-03-27T03:30:51.792Z,7.70
2019-03-27T03:33:21.608Z,7.60
2019-03-27T03:35:51.321Z,7.60
2019-03-27T03:38:20.930Z,7.60
2019-03-27T03:40:51.314Z,7.60
2019-03-27T03:43:21.086Z,7.70
2019-03-27T03:45:50.699Z,7.70
2019-03-27T03:48:20.378Z,7.70
2019-03-27T03:50:50.954Z,7.70
2019-03-27T03:53:20.679Z,7.60
2019-03-27T03:55:50.633Z,7.60
2019-03-27T03:58:21.095Z,7.60
2019-03-27T04:00:51.061Z,7.60
2019-03-27T04:03:22.750Z,7.60
2019-03-27T04:05:52.456Z,7.60
2019-03-27T04:08:22.101Z,7.70
2019-03-27T04:10:51.815Z,7.70
2019-03-27T04:13:21.766Z,7.70
2019-03-27T04:16:04.378Z,7.60
2019-03-27T04:18:34.197Z,7.60
2019-03-27T04:21:03.947Z,7.60
2019-03-27T04:23:33.975Z,7.50
2019-03-27T04:26:10.146Z,7.50
2019-03-27T04:28:35.720Z,7.60
2019-03-27T04:31:05.499Z,7.60
2019-03-27T04:33:35.319Z,7.60
2019-03-27T04:36:05.027Z,7.60
2019-03-27T04:38:34.976Z,7.60
2019-03-27T04:41:05.013Z,7.60
2019-03-27T04:43:35.044Z,7.60
2019-03-27T04:46:04.920Z,7.70
2019-03-27T04:48:34.698Z,7.70
2019-03-27T04:51:04.355Z,7.70
2019-03-27T04:53:33.883Z,7.70
2019-03-27T04:56:03.513Z,7.70
2019-03-27T04:58:33.112Z,7.70
2019-03-27T05:01:03.567Z,7.70
2019-03-27T05:03:33.337Z,7.70
2019-03-27T05:06:02.910Z,7.80
2019-03-27T05:08:32.482Z,7.70
2019-03-27T05:11:02.016Z,7.70
2019-03-27T05:13:31.598Z,7.60
2019-03-27T05:16:01.239Z,7.60
2019-03-27T05:18:31.216Z,7.70
2019-03-27T05:21:00.919Z,7.70
2019-03-27T05:23:30.614Z,7.70
2019-03-27T05:26:00.469Z,7.70
2019-03-27T05:28:30.022Z,7.70
2019-03-27T05:30:59.506Z,7.70
2019-03-27T05:33:32.549Z,7.80
2019-03-27T05:36:00.747Z,7.70
2019-03-27T05:38:30.600Z,7.70
2019-03-27T05:41:00.259Z,7.60
2019-03-27T05:43:29.830Z,7.70
2019-03-27T05:45:59.495Z,7.60
2019-03-27T05:48:29.050Z,7.60
2019-03-27T05:50:58.652Z,7.60
2019-03-27T05:53:28.214Z,7.70
2019-03-27T05:55:57.786Z,7.60
2019-03-27T05:58:27.347Z,7.60
2019-03-27T06:00:57.115Z,7.60
2019-03-27T06:03:26.898Z,7.60
2019-03-27T06:05:59.728Z,7.70
2019-03-27T06:08:29.667Z,7.70
2019-03-27T06:10:59.382Z,7.70
2019-03-27T06:13:29.007Z,7.70
2019-03-27T06:15:59.047Z,7.60
2019-03-27T06:18:28.737Z,7.60
2019-03-27T06:20:58.469Z,7.60
2019-03-27T06:23:28.072Z,7.60
2019-03-27T06:25:57.726Z,7.60
2019-03-27T06:28:27.356Z,7.50
2019-03-27T06:30:56.854Z,7.50
2019-03-27T06:33:26.503Z,7.60
2019-03-27T06:35:55.992Z,7.60
2019-03-27T06:38:25.614Z,7.60
2019-03-27T06:40:55.538Z,7.60
2019-03-27T06:43:25.359Z,7.60
2019-03-27T06:45:58.161Z,7.60
2019-03-27T06:48:26.737Z,7.70
2019-03-27T06:50:56.663Z,7.60
2019-03-27T06:53:26.246Z,7.70
2019-03-27T06:55:55.779Z,7.70
2019-03-27T06:58:25.287Z,7.80
2019-03-27T07:00:54.894Z,7.80
2019-03-27T07:03:24.802Z,7.90
2019-03-27T07:05:54.330Z,7.90
2019-03-27T07:08:23.991Z,7.90
2019-03-27T07:10:53.494Z,7.80
2019-03-27T07:13:23.065Z,7.80
2019-03-27T07:15:52.787Z,7.80
2019-03-27T07:18:22.449Z,7.80
2019-03-27T07:20:52.055Z,7.80
2019-03-27T07:23:21.670Z,7.70
2019-03-27T07:25:51.283Z,7.70
2019-03-27T07:28:21.186Z,7.80
2019-03-27T07:30:51.165Z,7.80
2019-03-27T07:33:20.782Z,7.80
2019-03-27T07:35:50.430Z,7.90
2019-03-27T07:38:23.110Z,7.90
2019-03-27T07:40:52.722Z,7.90
2019-03-27T07:43:22.364Z,7.90
2019-03-27T07:45:51.930Z,8.00
2019-03-27T07:48:21.683Z,8.00
2019-03-27T07:50:51.355Z,8.00
2019-03-27T07:53:22.461Z,8.10
2019-03-27T07:55:52.367Z,8.10
2019-03-27T07:58:21.987Z,8.10
2019-03-27T08:00:51.657Z,8.10
2019-03-27T08:03:21.443Z,8.20
2019-03-27T08:05:51.415Z,8.20
2019-03-27T08:08:20.972Z,8.30
2019-03-27T08:10:56.661Z,8.30
2019-03-27T08:13:26.252Z,8.30
2019-03-27T08:15:55.919Z,8.30
2019-03-27T08:18:25.603Z,8.30
2019-03-27T08:20:55.159Z,8.40
2019-03-27T08:23:24.791Z,8.50
2019-03-27T08:25:54.478Z,8.50
2019-03-27T08:28:24.015Z,8.60
2019-03-27T08:30:53.966Z,8.60
2019-03-27T08:33:23.466Z,8.70
2019-03-27T08:35:52.946Z,8.70
2019-03-27T08:38:22.546Z,8.70
2019-03-27T08:40:52.341Z,8.80
2019-03-27T08:43:25.350Z,8.90
2019-03-27T08:45:53.156Z,9.00
2019-03-27T08:48:22.749Z,9.00
2019-03-27T08:50:52.490Z,9.00
2019-03-27T08:53:22.150Z,9.10
2019-03-27T08:55:51.833Z,9.10
2019-03-27T08:58:21.512Z,9.10
2019-03-27T09:00:53.046Z,9.20
2019-03-27T09:03:22.631Z,9.30
2019-03-27T09:05:52.551Z,9.40
2019-03-27T09:08:22.557Z,9.50
2019-03-27T09:10:52.561Z,9.50
2019-03-27T09:13:26.171Z,9.60
2019-03-27T09:15:55.705Z,9.60
2019-03-27T09:18:25.418Z,9.50
2019-03-27T09:20:55.095Z,9.40
2019-03-27T09:23:27.954Z,9.50
2019-03-27T09:26:00.896Z,9.50
2019-03-27T09:28:30.440Z,9.50
2019-03-27T09:31:00.166Z,9.50
2019-03-27T09:33:29.975Z,9.50
2019-03-27T09:35:59.735Z,9.60
2019-03-27T09:38:29.414Z,9.60
2019-03-27T09:40:58.983Z,9.60
2019-03-27T09:43:28.660Z,9.50
2019-03-27T09:45:58.275Z,9.50
2019-03-27T09:48:28.167Z,9.50
2019-03-27T09:50:57.993Z,9.60
2019-03-27T09:53:28.033Z,9.70
2019-03-27T09:56:18.017Z,9.70
2019-03-27T09:58:35.183Z,9.70
2019-03-27T10:01:21.047Z,9.70
2019-03-27T10:03:50.659Z,9.80
2019-03-27T10:06:20.367Z,9.90
2019-03-27T10:08:50.131Z,10.00
2019-03-27T10:11:19.817Z,10.10
2019-03-27T10:13:49.766Z,10.10
2019-03-27T10:16:19.367Z,10.20
2019-03-27T10:18:48.993Z,10.10
2019-03-27T10:21:18.752Z,10.10
2019-03-27T10:23:48.748Z,10.10
2019-03-27T10:26:18.224Z,10.20
2019-03-27T10:28:47.734Z,10.20
2019-03-27T10:31:17.819Z,10.20
2019-03-27T10:33:47.668Z,10.20
2019-03-27T10:36:17.396Z,10.20
2019-03-27T10:38:47.035Z,10.20
2019-03-27T10:41:16.555Z,10.20
2019-03-27T10:43:46.073Z,10.30
2019-03-27T10:46:17.634Z,10.40
2019-03-27T10:48:52.944Z,10.40
2019-03-27T10:51:19.555Z,10.50
2019-03-27T10:53:49.046Z,10.60
2019-03-27T10:56:18.694Z,10.70
2019-03-27T10:58:51.345Z,10.90
2019-03-27T11:01:20.884Z,11.00
2019-03-27T11:03:50.398Z,11.10
2019-03-27T11:06:24.069Z,11.30
2019-03-27T11:08:53.646Z,11.50
2019-03-27T11:11:23.186Z,11.60
2019-03-27T11:13:53.351Z,11.60
2019-03-27T11:16:23.045Z,11.60
2019-03-27T11:18:52.754Z,11.60
2019-03-27T11:21:24.372Z,11.70
2019-03-27T11:23:54.079Z,11.80
2019-03-27T11:26:24.603Z,11.80
2019-03-27T11:28:54.138Z,11.80
2019-03-27T11:31:31.599Z,11.70
2019-03-27T11:34:01.344Z,11.70
2019-03-27T11:36:31.174Z,11.70
2019-03-27T11:39:01.001Z,11.70
2019-03-27T11:41:30.679Z,11.70
2019-03-27T11:44:00.420Z,11.60
2019-03-27T11:47:01.600Z,11.60
2019-03-27T11:49:33.991Z,11.60
2019-03-27T11:52:03.708Z,11.60
2019-03-27T11:54:34.394Z,11.60
2019-03-27T11:57:12.324Z,11.60
2019-03-27T11:59:53.254Z,11.60
2019-03-27T12:02:13.563Z,11.60
2019-03-27T12:04:43.275Z,11.60
2019-03-27T12:07:12.978Z,11.50
2019-03-27T12:09:48.460Z,11.50
2019-03-27T12:12:18.068Z,11.50
2019-03-27T12:14:48.703Z,11.50
2019-03-27T12:17:19.094Z,11.60
2019-03-27T12:19:52.234Z,11.50
2019-03-27T12:22:21.856Z,11.50
2019-03-27T12:24:51.629Z,11.50
2019-03-27T12:27:21.588Z,11.50
2019-03-27T12:29:51.215Z,11.50
2019-03-27T12:32:21.075Z,11.50
2019-03-27T12:34:50.630Z,11.50
2019-03-27T12:37:20.219Z,11.60
2019-03-27T12:39:50.014Z,11.60
2019-03-27T12:42:19.740Z,11.60
2019-03-27T12:44:49.487Z,11.60
2019-03-27T12:47:22.683Z,11.60
2019-03-27T12:49:52.271Z,11.60
2019-03-27T12:52:22.187Z,11.50
2019-03-27T12:54:51.942Z,11.50
2019-03-27T12:57:21.642Z,11.50
2019-03-27T12:59:51.559Z,11.50
2019-03-27T13:02:22.404Z,11.50
2019-03-27T13:04:52.027Z,11.50
2019-03-27T13:07:21.955Z,11.50
2019-03-27T13:09:51.593Z,11.50
2019-03-27T13:12:21.854Z,11.60
2019-03-27T13:14:51.993Z,11.50
2019-03-27T13:17:21.633Z,11.50
2019-03-27T13:19:51.239Z,11.50
2019-03-27T13:22:21.082Z,11.50
2019-03-27T13:24:51.175Z,11.40
2019-03-27T13:27:29.990Z,11.40
2019-03-27T13:29:59.644Z,11.40
2019-03-27T13:32:29.728Z,11.40
2019-03-27T13:34:59.483Z,11.40
2019-03-27T13:37:30.033Z,11.40
2019-03-27T13:40:00.546Z,11.40
2019-03-27T13:42:30.495Z,11.40
2019-03-27T13:45:01.736Z,11.50
2019-03-27T13:47:31.329Z,11.50
2019-03-27T13:50:01.338Z,11.50
2019-03-27T13:52:31.205Z,11.50
2019-03-27T13:55:02.955Z,11.50
2019-03-27T13:57:36.805Z,11.40
2019-03-27T14:00:08.525Z,11.40
2019-03-27T14:02:38.425Z,11.40
2019-03-27T14:08:00.403Z,11.40
2019-03-27T14:10:30.151Z,11.40
2019-03-27T14:13:00.335Z,11.40
2019-03-27T14:15:49.217Z,11.30
2019-03-27T14:18:19.947Z,11.30
2019-03-27T14:20:49.724Z,11.30
2019-03-27T14:23:20.461Z,11.20
2019-03-27T14:25:50.242Z,11.20
2019-03-27T14:28:20.049Z,11.20
2019-03-27T14:30:57.518Z,11.10
2019-03-27T14:33:27.304Z,11.10
2019-03-27T14:35:57.149Z,11.10
2019-03-27T14:38:26.918Z,11.00
2019-03-27T14:40:56.647Z,11.00
2019-03-27T14:43:27.179Z,11.00
2019-03-27T14:45:57.251Z,11.00
2019-03-27T14:48:27.631Z,11.00
2019-03-27T14:50:57.328Z,11.00
2019-03-27T14:53:27.255Z,11.00
2019-03-27T14:56:01.007Z,11.00
2019-03-27T14:58:30.746Z,11.00
2019-03-27T15:01:00.494Z,11.00
2019-03-27T15:03:30.256Z,11.00
2019-03-27T15:05:59.927Z,11.00
2019-03-27T15:08:29.531Z,10.90
2019-03-27T15:10:59.544Z,10.90
2019-03-27T15:13:29.516Z,10.90
2019-03-27T15:15:59.188Z,10.80
2019-03-27T15:18:29.091Z,10.80
2019-03-27T15:20:58.727Z,10.80
2019-03-27T15:23:28.765Z,10.80
2019-03-27T15:25:58.330Z,10.80
2019-03-27T15:28:28.052Z,10.80
2019-03-27T15:30:58.830Z,10.80
2019-03-27T15:33:28.476Z,10.80
2019-03-27T15:35:58.211Z,10.80
2019-03-27T15:38:27.915Z,10.80
2019-03-27T15:40:57.531Z,10.80
2019-03-27T15:43:30.873Z,10.80
2019-03-27T15:46:01.591Z,10.90
2019-03-27T15:48:31.567Z,10.90
2019-03-27T15:51:05.283Z,10.90
2019-03-27T15:53:34.978Z,10.90
2019-03-27T15:56:04.670Z,10.90
2019-03-27T15:58:41.690Z,10.90
2019-03-27T16:01:11.419Z,10.90
2019-03-27T16:03:41.296Z,10.80
2019-03-27T16:06:11.091Z,10.80
2019-03-27T16:08:40.832Z,10.80
2019-03-27T16:11:14.712Z,10.90
2019-03-27T16:13:44.432Z,10.90
2019-03-27T16:16:14.148Z,10.90
2019-03-27T16:18:48.084Z,10.90
2019-03-27T16:21:18.679Z,10.90
2019-03-27T16:23:48.240Z,10.90
2019-03-27T16:26:29.101Z,10.90
2019-03-27T16:28:58.803Z,10.90
2019-03-27T16:31:28.587Z,10.90
2019-03-27T16:33:59.304Z,11.00
2019-03-27T16:36:28.991Z,11.00
2019-03-27T16:38:58.604Z,11.00
2019-03-27T16:41:28.628Z,11.00
2019-03-27T16:43:58.271Z,11.10
2019-03-27T16:46:28.201Z,11.10
2019-03-27T16:49:03.952Z,11.10
2019-03-27T16:51:34.514Z,11.10
2019-03-27T16:54:04.484Z,11.20
2019-03-27T16:56:34.064Z,11.10
2019-03-27T16:59:03.660Z,11.10
2019-03-27T17:01:33.226Z,11.10
2019-03-27T17:04:03.070Z,11.10
2019-03-27T17:06:33.112Z,11.10
2019-03-27T17:09:15.615Z,11.10
2019-03-27T17:11:45.244Z,11.10
2019-03-27T17:14:14.854Z,11.10
2019-03-27T17:16:44.519Z,11.10
2019-03-27T17:19:16.035Z,11.10
2019-03-27T17:21:46.157Z,11.00
2019-03-27T17:24:15.766Z,11.00
2019-03-27T17:26:45.849Z,11.00
2019-03-27T17:29:16.430Z,10.90
2019-03-27T17:31:46.047Z,10.90
2019-03-27T17:34:15.603Z,10.90
2019-03-27T17:36:45.328Z,10.90
2019-03-27T17:39:16.876Z,11.00
2019-03-27T17:41:46.466Z,10.90
2019-03-27T17:44:16.956Z,10.90
2019-03-27T17:46:49.777Z,10.90
2019-03-27T17:49:17.892Z,10.90
2019-03-27T17:51:47.510Z,10.90
2019-03-27T17:54:20.856Z,10.90
2019-03-27T17:56:48.283Z,10.90
2019-03-27T17:59:19.866Z,10.90
2019-03-27T18:01:49.451Z,10.90
2019-03-27T18:04:19.025Z,10.90
2019-03-27T18:06:48.622Z,10.90
2019-03-27T18:09:18.158Z,10.90
2019-03-27T18:11:47.763Z,10.90
2019-03-27T18:14:17.468Z,10.90
2019-03-27T18:16:47.035Z,10.90
2019-03-27T18:19:16.478Z,10.90
2019-03-27T18:21:46.447Z,10.90
2019-03-27T18:24:16.024Z,10.90
2019-03-27T18:26:45.676Z,10.90
2019-03-27T18:29:15.518Z,10.80
2019-03-27T18:31:45.226Z,10.80
2019-03-27T18:34:14.910Z,10.80
2019-03-27T18:36:45.791Z,10.80
2019-03-27T18:39:15.355Z,10.80
2019-03-27T18:41:45.055Z,10.80
2019-03-27T18:44:14.815Z,10.80
2019-03-27T18:46:44.567Z,10.80
2019-03-27T18:49:14.404Z,10.90
2019-03-27T18:51:44.238Z,10.90
2019-03-27T18:54:13.799Z,10.90
2019-03-27T18:56:43.484Z,10.90
2019-03-27T18:59:13.290Z,10.90
2019-03-27T19:01:42.973Z,10.90
2019-03-27T19:04:12.535Z,10.90
2019-03-27T19:06:42.123Z,10.90
2019-03-27T19:09:12.738Z,10.80
2019-03-27T19:11:42.416Z,10.80
2019-03-27T19:14:12.126Z,10.70
2019-03-27T19:16:42.137Z,10.70
2019-03-27T19:19:11.861Z,10.60
2019-03-27T19:21:41.378Z,10.60
2019-03-27T19:24:16.189Z,10.70
2019-03-27T19:26:42.454Z,10.80
2019-03-27T19:29:12.260Z,10.80
2019-03-27T19:31:41.883Z,10.70
2019-03-27T19:34:11.727Z,10.70
2019-03-27T19:36:41.360Z,10.70
2019-03-27T19:39:11.055Z,10.70
2019-03-27T19:41:40.781Z,10.70
2019-03-27T19:44:10.457Z,10.70
2019-03-27T19:46:40.203Z,10.60
2019-03-27T19:49:09.743Z,10.60
2019-03-27T19:51:39.315Z,10.60
2019-03-27T19:54:08.856Z,10.50
2019-03-27T19:56:38.855Z,10.50
2019-03-27T19:59:08.495Z,10.50
2019-03-27T20:01:37.990Z,10.50
2019-03-27T20:04:07.895Z,10.60
2019-03-27T20:06:37.504Z,10.50
2019-03-27T20:09:08.111Z,10.50
2019-03-27T20:11:37.801Z,10.50
2019-03-27T20:14:07.817Z,10.60
2019-03-27T20:16:37.618Z,10.60
2019-03-27T20:19:07.293Z,10.70
2019-03-27T20:21:40.903Z,10.60
2019-03-27T20:24:10.538Z,10.60
2019-03-27T20:26:40.303Z,10.50
2019-03-27T20:29:10.267Z,10.60
2019-03-27T20:31:46.236Z,10.60
2019-03-27T20:34:16.082Z,10.60
2019-03-27T20:36:45.818Z,10.50
2019-03-27T20:39:15.378Z,10.50
2019-03-27T20:41:44.915Z,10.50
2019-03-27T20:44:14.477Z,10.50
2019-03-27T20:46:44.248Z,10.40
2019-03-27T20:49:14.045Z,10.40
2019-03-27T20:51:43.713Z,10.40
2019-03-27T20:54:13.356Z,10.40
2019-03-27T20:56:42.891Z,10.40
2019-03-27T20:59:12.467Z,10.40
2019-03-27T21:01:42.335Z,10.40
2019-03-27T21:04:12.134Z,10.40
2019-03-27T21:06:42.234Z,10.30
2019-03-27T21:09:11.993Z,10.30
2019-03-27T21:11:41.708Z,10.30
2019-03-27T21:14:11.416Z,10.20
2019-03-27T21:16:41.058Z,10.30
2019-03-27T21:19:10.688Z,10.20
2019-03-27T21:21:41.908Z,10.30
2019-03-27T21:24:11.627Z,10.30
2019-03-27T21:26:41.167Z,10.30
2019-03-27T21:29:10.695Z,10.30
2019-03-27T21:31:40.299Z,10.20
2019-03-27T21:34:09.916Z,10.30
2019-03-27T21:36:39.451Z,10.30
2019-03-27T21:39:10.077Z,10.30
2019-03-27T21:41:39.764Z,10.30
2019-03-27T21:44:13.298Z,10.30
2019-03-27T21:46:42.945Z,10.40
2019-03-27T21:49:12.530Z,10.30
2019-03-27T21:51:42.969Z,10.30
2019-03-27T21:54:12.587Z,10.30
2019-03-27T21:56:42.138Z,10.20
2019-03-27T21:59:11.646Z,10.20
2019-03-27T22:01:41.234Z,10.20
2019-03-27T22:04:10.814Z,10.20
2019-03-27T22:06:40.939Z,10.20
2019-03-27T22:09:10.731Z,10.20
2019-03-27T22:11:40.226Z,10.20
2019-03-27T22:14:09.783Z,10.20
2019-03-27T22:16:39.290Z,10.20
2019-03-27T22:19:09.063Z,10.20
2019-03-27T22:21:38.582Z,10.20
2019-03-27T22:24:08.127Z,10.10
2019-03-27T22:26:37.670Z,10.10
2019-03-27T22:29:07.202Z,10.20
2019-03-27T22:31:36.774Z,10.20
2019-03-27T22:34:06.386Z,10.10
2019-03-27T22:36:36.117Z,10.10
2019-03-27T22:39:08.507Z,10.10
2019-03-27T22:41:38.296Z,10.10
2019-03-27T22:44:07.810Z,10.10
2019-03-27T22:46:37.667Z,10.10
2019-03-27T22:49:07.242Z,10.20
2019-03-27T22:51:36.906Z,10.10
2019-03-27T22:54:06.491Z,10.10
2019-03-27T22:56:36.231Z,10.10
2019-03-27T22:59:05.854Z,10.10
2019-03-27T23:01:45.712Z,10.00
2019-03-27T23:04:15.495Z,10.00
2019-03-27T23:06:45.023Z,10.00
2019-03-27T23:09:14.657Z,10.00
2019-03-27T23:11:44.529Z,10.00
2019-03-27T23:14:14.235Z,10.10
2019-03-27T23:16:43.814Z,10.10
2019-03-27T23:19:13.494Z,10.10
2019-03-27T23:21:43.281Z,10.10
2019-03-27T23:24:12.943Z,10.10
2019-03-27T23:26:42.438Z,10.00
2019-03-27T23:29:12.034Z,10.00
2019-03-27T23:31:41.550Z,10.00
2019-03-27T23:34:11.588Z,10.00
2019-03-27T23:36:41.234Z,10.00
2019-03-27T23:39:10.839Z,10.00
2019-03-27T23:41:40.444Z,10.00
2019-03-27T23:44:09.895Z,10.00
2019-03-27T23:46:39.851Z,10.00
2019-03-27T23:49:09.492Z,10.00
2019-03-27T23:51:39.182Z,10.00
2019-03-27T23:54:08.690Z,9.90
2019-03-27T23:56:38.278Z,10.00
2019-03-27T23:59:07.947Z,10.00
